Time;durP1;ratioP1;P1;durP2;ratioP2;P2;SDS_P1;SDS_P2;PMS_P1;PMS_P2;Temp;Humidity;BMP_temperature;BMP_pressure;BME280_temperature;BME280_humidity;BME280_pressure;Samples;Min_cycle;Max_cycle;Signal;HPM_P1;HPM_P2
2023/07/10 00:01:15;;;;;;;;;4.00;4.00;;;;;32.71;31.53;101229.56;5036297;28;45444;-75
2023/07/10 00:03:41;;;;;;;;;3.50;3.25;;;;;32.66;31.88;101229.28;5019066;28;45344;-78
2023/07/10 00:06:14;;;;;;;;;3.00;3.00;;;;;32.60;31.18;101236.34;5037110;28;45397;-75
2023/07/10 00:08:40;;;;;;;;;3.75;3.75;;;;;32.55;31.38;101246.97;5035930;28;46326;-74
2023/07/10 00:11:15;;;;;;;;;3.50;3.50;;;;;32.52;31.90;101233.72;5041478;28;45255;-72
2023/07/10 00:13:40;;;;;;;;;3.50;3.50;;;;;32.40;31.43;101236.97;5026396;28;45286;-71
2023/07/10 00:16:14;;;;;;;;;3.00;3.00;;;;;32.40;31.52;101236.13;5037476;28;45249;-72
2023/07/10 00:18:39;;;;;;;;;2.00;2.00;;;;;32.34;31.63;101238.56;5036716;28;46081;-66
2023/07/10 00:21:04;;;;;;;;;2.50;2.50;;;;;32.32;31.42;101239.78;5036467;28;45209;-68
2023/07/10 00:23:30;;;;;;;;;1.50;1.50;;;;;32.30;30.90;101242.69;5036425;28;45624;-75
2023/07/10 00:25:55;;;;;;;;;3.00;3.00;;;;;32.27;31.73;101248.47;5036483;28;47933;-74
2023/07/10 00:28:21;;;;;;;;;2.75;2.75;;;;;32.22;31.44;101250.09;5036389;28;45343;-73
2023/07/10 00:30:48;;;;;;;;;3.50;3.50;;;;;32.22;32.15;101252.81;5036852;28;45340;-75
2023/07/10 00:33:15;;;;;;;;;3.25;3.25;;;;;32.20;31.42;101248.41;5038592;28;45401;-77
2023/07/10 00:35:42;;;;;;;;;2.50;2.50;;;;;32.22;31.73;101244.66;5020565;28;45381;-70
2023/07/10 00:38:29;;;;;;;;;5.00;5.00;;;;;32.27;31.80;101250.38;5037471;28;46063;-67
2023/07/10 00:40:57;;;;;;;;;4.00;4.00;;;;;32.24;31.96;101245.31;5034626;28;45334;-71
2023/07/10 00:43:25;;;;;;;;;3.00;2.00;;;;;32.20;31.80;101256.56;5036108;28;45392;-74
2023/07/10 00:45:51;;;;;;;;;2.00;2.00;;;;;32.17;31.79;101240.63;5018465;28;45471;-68
2023/07/10 00:48:32;;;;;;;;;4.50;4.50;;;;;32.17;31.17;101247.94;5037029;28;46222;-70
2023/07/10 00:51:02;;;;;;;;;5.00;5.00;;;;;32.10;31.31;101247.00;5018231;28;45506;-74
2023/07/10 00:53:31;;;;;;;;;6.75;6.75;;;;;31.98;31.61;101233.03;5036662;28;45317;-70
2023/07/10 00:56:02;;;;;;;;;3.00;3.00;;;;;32.02;31.59;101242.53;5038611;28;45542;-75
2023/07/10 00:58:39;;;;;;;;;3.50;3.50;;;;;31.98;31.28;101247.47;5018443;28;45447;-76
2023/07/10 01:01:14;;;;;;;;;4.50;4.50;;;;;31.94;31.39;101243.44;5036028;28;45230;-73
2023/07/10 01:03:42;;;;;;;;;4.00;4.00;;;;;31.95;31.83;101241.59;5036700;28;45320;-73
2023/07/10 01:06:32;;;;;;;;;7.50;7.50;;;;;31.89;32.11;101238.59;5037257;28;45585;-68
2023/07/10 01:09:05;;;;;;;;;8.75;8.75;;;;;31.51;32.78;101240.47;5029565;28;45338;-71
2023/07/10 01:11:32;;;;;;;;;18.25;17.50;;;;;31.61;32.29;101230.19;5036030;28;45823;-78
2023/07/10 01:13:58;;;;;;;;;6.00;6.00;;;;;31.62;32.29;101231.88;5036669;28;45388;-69
2023/07/10 01:16:25;;;;;;;;;6.00;6.00;;;;;31.75;32.59;101228.50;5038175;28;45289;-72
2023/07/10 01:18:51;;;;;;;;;5.50;5.50;;;;;31.73;31.97;101230.53;5040339;28;46468;-70
2023/07/10 01:21:25;;;;;;;;;5.00;5.00;;;;;31.86;32.38;101236.25;5021164;28;45479;-75
2023/07/10 01:23:51;;;;;;;;;4.50;4.50;;;;;31.70;31.94;101225.47;5041372;28;45242;-73
2023/07/10 01:26:17;;;;;;;;;6.25;6.25;;;;;31.70;32.38;101226.34;5042251;28;45491;-71
2023/07/10 01:28:43;;;;;;;;;5.00;5.00;;;;;31.60;32.15;101223.06;5037186;28;45536;-70
2023/07/10 01:31:12;;;;;;;;;4.25;4.25;;;;;31.60;32.37;101225.75;5036497;28;45285;-76
2023/07/10 01:33:43;;;;;;;;;5.00;5.00;;;;;31.65;32.27;101233.34;5006181;28;45500;-71
2023/07/10 01:36:12;;;;;;;;;6.00;6.00;;;;;31.63;32.52;101237.09;5023278;28;45602;-74
2023/07/10 01:38:43;;;;;;;;;4.75;4.75;;;;;31.60;32.25;101237.47;5018864;28;48562;-76
2023/07/10 01:41:31;;;;;;;;;4.50;4.50;;;;;31.60;32.46;101242.91;5038380;28;45379;-71
2023/07/10 01:43:57;;;;;;;;;5.00;5.00;;;;;31.60;32.34;101239.38;5040891;28;45311;-74
2023/07/10 01:46:27;;;;;;;;;5.00;5.00;;;;;31.62;32.52;101243.56;5040268;28;45525;-75
2023/07/10 01:48:56;;;;;;;;;6.50;6.50;;;;;31.64;32.50;101251.56;5038341;28;45560;-75
2023/07/10 01:51:22;;;;;;;;;3.75;3.75;;;;;31.53;32.21;101235.69;5037068;28;45454;-74
2023/07/10 01:53:48;;;;;;;;;4.50;4.50;;;;;31.59;32.58;101241.22;5036193;28;45385;-72
2023/07/10 01:56:17;;;;;;;;;4.00;4.00;;;;;31.51;32.30;101226.88;5036204;28;45478;-74
2023/07/10 01:58:42;;;;;;;;;6.50;6.50;;;;;31.64;32.47;101240.69;5036172;28;45584;-70
2023/07/10 02:01:09;;;;;;;;;4.75;4.75;;;;;31.68;32.16;101241.13;5018377;28;45420;-73
2023/07/10 02:03:34;;;;;;;;;4.25;4.25;;;;;31.65;32.52;101239.66;5038423;28;45404;-73
2023/07/10 02:05:59;;;;;;;;;6.00;6.00;;;;;31.68;32.48;101239.28;5036434;28;45606;-74
2023/07/10 02:08:25;;;;;;;;;6.50;6.50;;;;;31.67;32.36;101240.31;5037653;28;45987;-71
2023/07/10 02:10:51;;;;;;;;;6.00;6.00;;;;;31.76;32.57;101239.22;5039471;28;45452;-68
2023/07/10 02:13:16;;;;;;;;;6.25;6.25;;;;;31.70;32.58;101244.50;5039322;28;45304;-66
2023/07/10 02:15:41;;;;;;;;;4.75;4.75;;;;;31.72;32.56;101245.16;5039638;28;45282;-72
2023/07/10 02:18:07;;;;;;;;;4.75;4.75;;;;;31.71;32.44;101246.19;5038675;28;46272;-71
2023/07/10 02:20:32;;;;;;;;;4.00;4.00;;;;;31.61;32.66;101241.06;5038876;28;45232;-74
2023/07/10 02:22:58;;;;;;;;;4.50;4.50;;;;;31.57;32.68;101237.84;5021713;28;45225;-74
2023/07/10 02:25:23;;;;;;;;;7.50;7.50;;;;;31.46;32.62;101233.72;5042607;28;45159;-72
2023/07/10 02:27:50;;;;;;;;;6.75;6.75;;;;;31.50;32.42;101234.19;5038895;28;46282;-74
2023/07/10 02:30:15;;;;;;;;;7.50;7.50;;;;;31.54;32.69;101245.53;5038826;28;45408;-75
2023/07/10 02:32:41;;;;;;;;;5.50;5.50;;;;;31.55;32.42;101236.34;5038942;28;45514;-76
2023/07/10 02:35:06;;;;;;;;;7.00;7.00;;;;;31.60;33.05;101242.09;5039714;28;45379;-72
2023/07/10 02:37:32;;;;;;;;;6.00;6.00;;;;;31.46;33.16;101249.16;5038687;28;45493;-72
2023/07/10 02:39:57;;;;;;;;;7.75;7.75;;;;;31.36;33.50;101240.44;5038257;28;45517;-74
2023/07/10 02:42:23;;;;;;;;;11.00;11.00;;;;;31.40;33.38;101256.19;5039001;28;45422;-71
2023/07/10 02:44:48;;;;;;;;;9.25;9.25;;;;;31.32;33.65;101251.66;5039293;28;45595;-70
2023/07/10 02:47:14;;;;;;;;;7.00;7.00;;;;;31.30;33.66;101248.28;5040885;28;45920;-72
2023/07/10 02:49:39;;;;;;;;;6.00;6.00;;;;;31.30;33.49;101251.00;5038450;28;45426;-71
2023/07/10 02:52:05;;;;;;;;;7.00;7.00;;;;;31.28;33.53;101252.22;5038360;28;45416;-70
2023/07/10 02:54:31;;;;;;;;;11.00;11.00;;;;;31.27;33.52;101254.09;5040553;28;45500;-72
2023/07/10 02:56:56;;;;;;;;;7.00;7.00;;;;;31.29;33.65;101260.19;5039853;28;45390;-66
2023/07/10 02:59:28;;;;;;;;;8.00;8.00;;;;;31.33;33.23;101266.13;5040476;28;45335;-71
2023/07/10 03:01:54;;;;;;;;;7.75;7.75;;;;;31.26;33.42;101251.53;5039754;28;45403;-68
2023/07/10 03:04:20;;;;;;;;;6.50;6.50;;;;;31.29;33.59;101257.47;5039175;28;45307;-72
2023/07/10 03:06:49;;;;;;;;;6.00;6.00;;;;;31.27;33.62;101256.81;5038224;28;45386;-73
2023/07/10 03:09:17;;;;;;;;;6.75;6.75;;;;;31.29;33.43;101264.78;5023796;28;45246;-73
2023/07/10 03:11:43;;;;;;;;;5.00;5.00;;;;;31.27;33.45;101264.09;5039566;28;45466;-74
2023/07/10 03:14:09;;;;;;;;;5.75;5.75;;;;;31.25;33.68;101266.16;5038266;28;45586;-70
2023/07/10 03:16:34;;;;;;;;;6.50;6.50;;;;;31.26;33.54;101268.72;5041688;28;45942;-71
2023/07/10 03:18:59;;;;;;;;;5.75;5.75;;;;;31.25;33.72;101261.59;5027594;28;59872;-71
2023/07/10 03:21:25;;;;;;;;;7.50;7.50;;;;;31.25;33.80;101266.16;5037982;28;45341;-70
2023/07/10 03:23:51;;;;;;;;;5.00;5.00;;;;;31.24;33.53;101270.75;5040372;28;45261;-67
2023/07/10 03:26:16;;;;;;;;;4.75;4.75;;;;;31.23;33.63;101266.34;5040012;28;45353;-64
2023/07/10 03:28:42;;;;;;;;;4.75;4.75;;;;;31.23;33.62;101274.50;5037912;28;45399;-65
2023/07/10 03:31:07;;;;;;;;;6.00;6.00;;;;;31.18;33.75;101274.22;5038721;28;45372;-67
2023/07/10 03:33:33;;;;;;;;;5.00;5.00;;;;;31.18;33.76;101277.75;5038064;28;45594;-66
2023/07/10 03:36:05;;;;;;;;;5.00;5.00;;;;;31.18;34.09;101285.91;5038225;28;45393;-68
2023/07/10 03:38:31;;;;;;;;;6.50;6.50;;;;;31.18;33.50;101271.50;5038135;28;45497;-69
2023/07/10 03:40:58;;;;;;;;;5.00;5.00;;;;;31.27;33.79;101280.41;5039785;28;45320;-66
2023/07/10 03:43:25;;;;;;;;;7.00;7.00;;;;;31.28;33.94;101273.94;5037373;28;45568;-68
2023/07/10 03:45:50;;;;;;;;;6.75;6.75;;;;;31.24;33.62;101259.03;5037135;28;46155;-66
2023/07/10 03:48:15;;;;;;;;;7.00;7.00;;;;;31.30;33.99;101280.06;5037478;28;45229;-70
2023/07/10 03:50:41;;;;;;;;;6.50;6.50;;;;;31.27;33.97;101275.84;5037416;28;45260;-65
2023/07/10 03:53:06;;;;;;;;;8.00;8.00;;;;;31.26;33.81;101278.72;5040688;28;45450;-73
2023/07/10 03:55:32;;;;;;;;;8.50;8.50;;;;;31.27;33.81;101281.28;5037675;28;46203;-77
2023/07/10 03:57:57;;;;;;;;;6.00;6.00;;;;;31.27;33.76;101291.28;5038180;28;49769;-78
2023/07/10 04:00:22;;;;;;;;;6.75;6.75;;;;;31.21;33.81;101281.13;5037651;28;45301;-70
2023/07/10 04:02:48;;;;;;;;;6.25;6.25;;;;;31.28;34.09;101299.25;5040756;28;45450;-69
2023/07/10 04:05:13;;;;;;;;;7.00;7.00;;;;;31.21;34.12;101282.00;5023777;28;48321;-66
2023/07/10 04:07:38;;;;;;;;;6.00;6.00;;;;;31.29;34.11;101294.69;5039401;28;48507;-66
2023/07/10 04:10:04;;;;;;;;;6.00;6.00;;;;;31.36;33.57;101305.66;5021273;28;45321;-64
2023/07/10 04:12:29;;;;;;;;;7.50;7.50;;;;;31.26;33.96;101285.00;5037789;28;45482;-70
2023/07/10 04:14:55;;;;;;;;;5.00;5.00;;;;;31.38;33.90;101296.31;5037675;28;46172;-68
2023/07/10 04:17:20;;;;;;;;;5.00;5.00;;;;;31.33;33.91;101274.28;5037935;28;45470;-75
2023/07/10 04:19:46;;;;;;;;;10.00;10.00;;;;;31.50;34.14;101304.03;5037166;28;45456;-76
2023/07/10 04:22:11;;;;;;;;;7.00;7.00;;;;;31.54;33.57;101305.34;5038320;28;45373;-71
2023/07/10 04:24:36;;;;;;;;;10.00;8.25;;;;;31.55;33.84;101307.03;5040440;28;46150;-71
2023/07/10 04:27:02;;;;;;;;;0.75;0.75;;;;;31.55;33.75;101317.91;5046766;28;45328;-68
2023/07/10 04:29:27;;;;;;;;;6.25;6.25;;;;;31.55;33.69;101320.63;5046084;28;45300;-78
2023/07/10 04:31:52;;;;;;;;;6.00;6.00;;;;;31.59;33.73;101317.34;5038669;28;45269;-76
2023/07/10 04:34:18;;;;;;;;;4.50;4.50;;;;;31.57;33.67;101303.09;5017980;28;46078;-69
2023/07/10 04:36:43;;;;;;;;;6.00;6.00;;;;;31.71;34.03;101325.94;5038037;28;45396;-68
2023/07/10 04:39:09;;;;;;;;;6.00;6.00;;;;;31.74;33.82;101325.59;5018282;28;45356;-67
2023/07/10 04:41:38;;;;;;;;;5.50;5.50;;;;;31.81;33.65;101330.28;5036983;28;45369;-76
2023/07/10 04:44:03;;;;;;;;;4.50;4.50;;;;;31.73;33.40;101317.56;5036997;28;46312;-71
2023/07/10 04:46:30;;;;;;;;;4.25;4.25;;;;;31.83;33.22;101328.22;5037418;28;45331;-75
2023/07/10 04:48:56;;;;;;;;;4.50;4.50;;;;;31.84;33.63;101338.06;5021112;28;45424;-71
2023/07/10 04:51:21;;;;;;;;;4.50;4.50;;;;;31.88;33.11;101332.09;5030607;28;45411;-77
2023/07/10 04:53:47;;;;;;;;;4.00;4.00;;;;;31.99;33.28;101332.66;5020822;28;46904;-78
2023/07/10 04:56:15;;;;;;;;;5.75;5.75;;;;;32.03;32.95;101339.44;5037762;28;45343;-72
2023/07/10 04:58:55;;;;;;;;;5.25;5.25;;;;;32.09;33.34;101343.25;5038565;28;45273;-77
2023/07/10 05:01:23;;;;;;;;;7.00;6.00;;;;;32.06;33.28;101336.34;5036925;28;45582;-76
2023/07/10 05:03:49;;;;;;;;;6.00;6.00;;;;;32.17;33.55;101338.59;5036556;28;45700;-78
2023/07/10 05:06:16;;;;;;;;;11.00;11.00;;;;;32.17;34.31;101338.59;5036532;28;45249;-69
2023/07/10 05:08:41;;;;;;;;;6.00;6.00;;;;;32.13;33.12;101340.00;5036443;28;45338;-68
2023/07/10 05:11:07;;;;;;;;;14.50;12.50;;;;;32.15;33.52;101334.34;5038066;28;45347;-68
2023/07/10 05:13:32;;;;;;;;;13.25;11.25;;;;;32.27;33.38;101330.13;5036179;28;45714;-65
2023/07/10 05:15:58;;;;;;;;;14.00;13.50;;;;;32.39;32.98;101330.53;5035943;28;45414;-73
2023/07/10 05:18:29;;;;;;;;;16.00;16.00;;;;;32.48;33.36;101334.84;5036750;28;45548;-68
2023/07/10 05:20:55;;;;;;;;;11.00;11.00;;;;;32.50;33.68;101318.34;5037999;28;45336;-68
2023/07/10 05:23:21;;;;;;;;;12.25;12.00;;;;;32.74;33.23;101328.06;5036636;28;45278;-73
2023/07/10 05:26:04;;;;;;;;;12.00;12.00;;;;;32.96;32.89;101339.03;5036979;28;45349;-66
2023/07/10 05:28:29;;;;;;;;;14.25;14.25;;;;;33.04;33.08;101329.88;5036356;28;45448;-77
2023/07/10 05:30:58;;;;;;;;;12.25;12.25;;;;;33.19;32.91;101327.94;5036370;28;45552;-70
2023/07/10 05:33:24;;;;;;;;;12.00;12.00;;;;;33.42;32.83;101340.59;5036247;28;45456;-69
2023/07/10 05:35:54;;;;;;;;;11.25;11.25;;;;;33.42;32.09;101320.66;5036370;28;45333;-70
2023/07/10 05:38:22;;;;;;;;;12.00;12.00;;;;;33.59;31.91;101334.88;5036465;28;45241;-71
2023/07/10 05:40:48;;;;;;;;;13.50;13.50;;;;;33.61;32.31;101325.44;5019609;28;45379;-72
2023/07/10 05:43:13;;;;;;;;;15.00;14.75;;;;;33.71;31.95;101322.38;5037625;28;46812;-71
2023/07/10 05:45:38;;;;;;;;;16.75;16.75;;;;;33.81;31.57;101332.91;5040317;28;45437;-71
2023/07/10 05:48:04;;;;;;;;;14.25;14.25;;;;;33.85;31.57;101328.75;5041174;28;45382;-68
2023/07/10 05:50:30;;;;;;;;;5.50;5.50;;;;;33.71;31.93;101335.16;5039633;28;45477;-72
2023/07/10 05:52:56;;;;;;;;;5.25;4.50;;;;;33.67;32.07;101333.88;5039640;28;47763;-72
2023/07/10 05:55:22;;;;;;;;;7.50;7.50;;;;;33.64;31.88;101326.94;5039009;28;45254;-74
2023/07/10 05:57:47;;;;;;;;;5.25;5.25;;;;;33.73;32.04;101333.06;5041440;28;45332;-68
2023/07/10 06:00:13;;;;;;;;;7.50;7.50;;;;;33.82;32.00;101341.97;5046243;28;45372;-69
2023/07/10 06:02:39;;;;;;;;;5.25;5.25;;;;;33.86;31.84;101344.09;5043446;28;45257;-69
2023/07/10 06:05:05;;;;;;;;;7.50;7.50;;;;;33.98;32.05;101338.13;5042090;28;45427;-71
2023/07/10 06:07:30;;;;;;;;;6.00;6.00;;;;;34.14;31.84;101343.28;5039886;28;45216;-67
2023/07/10 06:09:56;;;;;;;;;8.75;8.75;;;;;34.24;31.41;101334.72;5039653;28;45160;-69
2023/07/10 06:12:21;;;;;;;;;5.50;5.50;;;;;34.29;31.19;101331.38;5039052;28;45428;-67
2023/07/10 06:14:46;;;;;;;;;8.75;8.25;;;;;34.18;31.45;101341.84;5039041;28;45271;-67
2023/07/10 06:17:12;;;;;;;;;6.25;6.25;;;;;34.14;31.18;101340.53;5038959;28;45407;-67
2023/07/10 06:19:37;;;;;;;;;5.00;5.00;;;;;34.09;31.21;101346.59;5039301;28;45579;-68
2023/07/10 06:22:11;;;;;;;;;4.25;4.25;;;;;34.06;31.29;101346.16;5040343;28;45952;-67
2023/07/10 06:24:38;;;;;;;;;5.75;5.25;;;;;33.89;30.74;101338.22;5043017;28;45296;-71
2023/07/10 06:27:05;;;;;;;;;5.75;5.75;;;;;33.86;31.55;101346.81;5039657;28;45366;-68
2023/07/10 06:29:31;;;;;;;;;9.25;9.25;;;;;33.92;31.21;101339.72;5039347;28;45565;-71
2023/07/10 06:31:57;;;;;;;;;3.25;3.25;;;;;33.93;31.19;101339.56;5021141;28;45589;-71
2023/07/10 06:34:22;;;;;;;;;3.00;3.00;;;;;33.94;31.34;101345.88;5038716;28;45527;-69
2023/07/10 06:36:48;;;;;;;;;3.00;3.00;;;;;33.92;31.22;101343.28;5040166;28;45402;-71
2023/07/10 06:39:13;;;;;;;;;2.00;2.00;;;;;34.12;30.79;101342.63;5021420;28;45315;-68
2023/07/10 06:41:38;;;;;;;;;5.00;5.00;;;;;34.00;30.40;101325.13;5039286;28;45242;-71
2023/07/10 06:44:04;;;;;;;;;6.00;6.00;;;;;34.15;30.54;101341.38;5039347;28;45289;-68
2023/07/10 06:46:29;;;;;;;;;3.00;3.00;;;;;34.28;30.52;101340.63;5039918;28;45195;-72
2023/07/10 06:48:55;;;;;;;;;3.50;3.50;;;;;34.21;30.51;101341.44;5039189;28;45548;-71
2023/07/10 06:51:20;;;;;;;;;8.00;6.75;;;;;34.21;30.58;101343.31;5021863;28;47116;-80
2023/07/10 06:53:45;;;;;;;;;6.75;6.75;;;;;34.28;30.15;101332.44;5041485;28;45254;-76
2023/07/10 06:56:11;;;;;;;;;6.75;6.25;;;;;34.28;30.30;101343.34;5045000;28;45288;-66
2023/07/10 06:58:36;;;;;;;;;5.50;5.50;;;;;34.17;30.60;101328.38;5053550;28;44871;-78
2023/07/10 07:01:03;;;;;;;;;5.00;5.00;;;;;34.29;29.78;101339.56;5024601;28;45257;-75
2023/07/10 07:03:29;;;;;;;;;5.50;5.50;;;;;34.39;30.55;101342.78;5039054;28;45412;-81
2023/07/10 07:05:55;;;;;;;;;18.75;18.75;;;;;34.42;30.44;101336.91;5039774;28;45336;-80
2023/07/10 07:08:22;;;;;;;;;2.50;2.50;;;;;34.47;30.06;101336.34;5041032;28;45454;-78
2023/07/10 07:10:49;;;;;;;;;4.00;4.00;;;;;34.50;29.76;101322.28;5021390;28;46519;-77
2023/07/10 07:13:15;;;;;;;;;5.00;5.00;;;;;34.64;30.40;101334.09;5040356;28;45336;-76
2023/07/10 07:15:40;;;;;;;;;6.50;6.00;;;;;34.73;29.55;101338.34;5045240;28;45453;-80
2023/07/10 07:18:06;;;;;;;;;5.00;5.00;;;;;34.79;29.71;101342.16;5058024;28;45317;-73
2023/07/10 07:20:32;;;;;;;;;4.75;4.75;;;;;34.76;29.29;101334.34;5057490;28;46511;-81
2023/07/10 07:22:58;;;;;;;;;3.50;3.50;;;;;34.81;29.47;101337.31;5058291;28;45362;-77
2023/07/10 07:25:24;;;;;;;;;4.00;4.00;;;;;34.91;29.17;101328.72;5039775;28;45474;-75
2023/07/10 07:27:49;;;;;;;;;4.25;4.00;;;;;34.86;29.19;101325.75;5058305;28;45557;-78
2023/07/10 07:30:14;;;;;;;;;4.25;4.25;;;;;34.93;29.26;101335.66;5057981;28;46002;-75
2023/07/10 07:32:40;;;;;;;;;7.00;7.00;;;;;35.06;29.33;101331.31;5058596;28;45321;-78
2023/07/10 07:35:06;;;;;;;;;5.00;5.00;;;;;35.20;29.20;101327.56;5039948;28;45393;-77
2023/07/10 07:37:31;;;;;;;;;4.00;4.00;;;;;35.28;28.82;101333.88;5057852;28;45553;-75
2023/07/10 07:40:00;;;;;;;;;4.00;4.00;;;;;35.41;28.51;101330.31;5039310;28;46936;-72
2023/07/10 07:42:25;;;;;;;;;5.00;5.00;;;;;35.42;28.67;101324.63;5056674;28;45371;-69
2023/07/10 07:44:51;;;;;;;;;7.25;7.25;;;;;35.34;28.49;101333.03;5057593;28;45266;-70
2023/07/10 07:47:17;;;;;;;;;6.00;6.00;;;;;35.41;28.54;101327.56;5057826;28;45182;-74
2023/07/10 07:49:42;;;;;;;;;3.00;3.00;;;;;35.38;27.94;101316.00;5057665;28;45327;-71
2023/07/10 07:52:08;;;;;;;;;3.50;3.50;;;;;35.37;27.66;101324.41;5058536;28;45392;-76
2023/07/10 07:54:33;;;;;;;;;2.25;2.25;;;;;35.31;27.60;101315.16;5039676;28;45287;-75
2023/07/10 07:56:59;;;;;;;;;2.75;2.75;;;;;35.36;27.72;101317.25;5067939;28;45296;-76
2023/07/10 07:59:24;;;;;;;;;4.50;4.50;;;;;35.35;26.94;101321.91;5062859;28;46377;-75
2023/07/10 08:01:51;;;;;;;;;3.00;3.00;;;;;35.36;26.57;101317.25;5057983;28;45388;-77
2023/07/10 08:04:18;;;;;;;;;3.00;3.00;;;;;35.48;26.18;101318.31;5057411;28;45305;-71
2023/07/10 08:06:43;;;;;;;;;3.25;3.25;;;;;35.60;25.74;101320.47;5057810;28;45264;-71
2023/07/10 08:09:09;;;;;;;;;3.50;3.50;;;;;35.70;25.84;101309.09;5056873;28;46259;-71
2023/07/10 08:11:34;;;;;;;;;4.00;4.00;;;;;35.80;25.90;101310.34;5057354;28;45212;-72
2023/07/10 08:14:00;;;;;;;;;2.25;2.25;;;;;35.95;25.86;101310.09;5058338;28;45204;-74
2023/07/10 08:16:25;;;;;;;;;3.00;3.00;;;;;36.13;25.78;101307.78;5058103;28;45483;-74
2023/07/10 08:18:51;;;;;;;;;4.00;4.00;;;;;36.19;25.28;101304.16;5057220;28;46030;-76
2023/07/10 08:21:17;;;;;;;;;2.75;2.75;;;;;36.22;25.03;101312.81;5038993;28;45371;-73
2023/07/10 08:23:43;;;;;;;;;2.75;2.50;;;;;36.23;24.54;101306.28;5058190;28;45534;-74
2023/07/10 08:26:08;;;;;;;;;2.75;2.75;;;;;36.32;24.73;101308.78;5058649;28;45510;-73
2023/07/10 08:28:34;;;;;;;;;3.00;3.00;;;;;36.52;24.87;101301.34;5059150;28;45431;-78
2023/07/10 08:30:59;;;;;;;;;3.00;3.00;;;;;36.74;24.89;101311.16;5039900;28;45282;-76
2023/07/10 08:33:25;;;;;;;;;2.50;2.50;;;;;36.78;24.49;101315.97;5038604;28;45571;-75
2023/07/10 08:35:56;;;;;;;;;3.00;3.00;;;;;36.68;24.51;101302.75;5057001;28;45374;-77
2023/07/10 08:38:21;;;;;;;;;3.50;3.50;;;;;36.83;24.54;101307.91;5056590;28;45201;-75
2023/07/10 08:40:49;;;;;;;;;3.50;3.50;;;;;37.05;25.12;101313.06;5057240;28;45195;-76
2023/07/10 08:43:26;;;;;;;;;4.50;4.50;;;;;37.25;24.87;101309.38;5057006;28;45423;-76
2023/07/10 08:46:05;;;;;;;;;3.00;2.75;;;;;37.21;24.34;101313.63;5056990;28;45354;-75
2023/07/10 08:48:58;;;;;;;;;4.00;4.00;;;;;37.13;24.78;101301.88;5056329;28;46474;-71
2023/07/10 08:51:50;;;;;;;;;4.75;4.75;;;;;37.21;24.58;101310.88;5056121;28;45209;-74
2023/07/10 08:54:18;;;;;;;;;3.00;3.00;;;;;37.23;24.52;101306.00;5057450;28;45372;-75
2023/07/10 08:57:08;;;;;;;;;7.50;7.00;;;;;37.39;24.55;101312.84;5058868;28;45245;-73
2023/07/10 08:59:45;;;;;;;;;1.25;1.25;;;;;37.61;23.45;101312.47;5057859;28;45408;-75
2023/07/10 09:02:28;;;;;;;;;2.25;2.25;;;;;37.56;23.56;101307.66;5038251;28;45454;-79
2023/07/10 09:04:55;;;;;;;;;7.50;7.50;;;;;37.54;23.58;101312.53;5038938;28;45574;-77
2023/07/10 09:07:21;;;;;;;;;2.00;2.00;;;;;37.74;23.42;101306.00;5056983;28;45502;-78
2023/07/10 09:09:55;;;;;;;;;1.00;1.00;;;;;37.89;23.21;101308.41;5057845;28;46803;-78
2023/07/10 09:12:33;;;;;;;;;2.75;2.75;;;;;37.99;22.80;101301.34;5057190;28;45502;-74
2023/07/10 09:15:12;;;;;;;;;4.50;4.50;;;;;38.07;22.73;101304.84;5056812;28;45259;-74
2023/07/10 09:17:49;;;;;;;;;1.75;1.75;;;;;38.17;22.14;101307.06;5058934;28;45469;-76
2023/07/10 09:20:15;;;;;;;;;2.00;2.00;;;;;38.26;22.54;101301.06;5066444;28;45386;-75
2023/07/10 09:22:54;;;;;;;;;1.50;1.50;;;;;38.34;22.03;101310.06;5060640;28;45400;-77
2023/07/10 09:25:21;;;;;;;;;3.00;3.00;;;;;38.34;22.15;101307.31;5039689;28;45269;-70
2023/07/10 09:27:47;;;;;;;;;2.00;2.00;;;;;38.38;22.08;101303.03;5040666;28;45372;-75
2023/07/10 09:30:35;;;;;;;;;3.00;3.00;;;;;38.55;21.83;101297.75;5069825;28;46042;-78
2023/07/10 09:33:05;;;;;;;;;1.00;1.00;;;;;38.48;21.64;101302.50;5057571;28;45417;-73
2023/07/10 09:35:34;;;;;;;;;2.00;2.00;;;;;38.45;21.32;101308.44;5039211;28;45241;-77
2023/07/10 09:38:00;;;;;;;;;1.50;1.50;;;;;37.93;21.14;101274.75;5057179;28;45795;-74
2023/07/10 09:40:36;;;;;;;;;3.50;3.50;;;;;38.04;21.67;101305.31;5056765;28;46198;-75
2023/07/10 09:43:03;;;;;;;;;2.25;2.25;;;;;38.12;21.36;101286.63;5040778;28;45415;-73
2023/07/10 09:45:34;;;;;;;;;3.25;3.00;;;;;38.40;21.49;101298.13;5056532;28;45446;-73
2023/07/10 09:48:00;;;;;;;;;2.25;2.25;;;;;38.61;21.74;101298.72;5058835;28;45349;-76
2023/07/10 09:50:26;;;;;;;;;8.00;8.00;;;;;38.65;21.68;101299.94;5056639;28;45993;-76
2023/07/10 09:52:54;;;;;;;;;3.00;3.00;;;;;38.62;21.59;101262.75;5056283;28;45415;-71
2023/07/10 09:55:19;;;;;;;;;5.00;5.00;;;;;38.99;21.20;101300.31;5056561;28;45224;-77
2023/07/10 09:57:59;;;;;;;;;7.00;7.00;;;;;39.07;21.14;101285.41;5056508;28;45393;-78
2023/07/10 10:00:26;;;;;;;;;3.50;3.50;;;;;39.23;20.93;101298.47;5056130;28;45580;-76
2023/07/10 10:03:02;;;;;;;;;4.00;4.00;;;;;39.34;21.02;101301.47;5058086;28;45320;-72
2023/07/10 10:05:29;;;;;;;;;2.50;2.50;;;;;39.48;20.99;101308.44;5057893;28;45336;-75
2023/07/10 10:08:02;;;;;;;;;5.25;5.25;;;;;39.69;20.34;101296.00;5055601;28;45573;-70
2023/07/10 10:10:30;;;;;;;;;2.00;2.00;;;;;39.72;20.81;101306.53;5055144;28;47450;-78
2023/07/10 10:13:04;;;;;;;;;5.50;5.50;;;;;39.79;20.69;101302.81;5055127;28;45415;-74
2023/07/10 10:15:35;;;;;;;;;3.50;3.50;;;;;39.93;20.70;101292.44;5054822;28;45267;-74
2023/07/10 10:18:07;;;;;;;;;0.50;0.50;;;;;39.78;19.98;101290.97;5036973;28;45773;-72
2023/07/10 10:20:35;;;;;;;;;0.50;0.50;;;;;39.77;20.19;101297.56;5055202;28;45507;-70
2023/07/10 10:23:01;;;;;;;;;6.50;6.50;;;;;39.81;20.32;101286.94;5054423;28;45321;-72
2023/07/10 10:25:39;;;;;;;;;4.25;4.25;;;;;40.02;19.91;101294.53;5055709;28;45339;-70
2023/07/10 10:28:17;;;;;;;;;5.75;5.75;;;;;40.00;19.92;101295.88;5055494;28;45355;-72
2023/07/10 10:30:54;;;;;;;;;3.50;2.25;;;;;39.90;19.78;101279.97;5055744;28;45357;-73
2023/07/10 10:33:36;;;;;;;;;6.75;6.75;;;;;39.94;19.44;101292.16;5039875;28;45351;-74
2023/07/10 10:36:41;;;;;;;;;3.50;3.50;;;;;39.90;19.66;101285.47;5040088;28;45448;-76
2023/07/10 10:39:20;;;;;;;;;3.50;3.50;;;;;39.97;19.62;101282.59;4996452;28;45670;-72
2023/07/10 10:41:56;;;;;;;;;12.00;12.00;;;;;40.09;19.57;101279.81;5058335;28;45594;-76
2023/07/10 10:44:46;;;;;;;;;3.75;3.75;;;;;40.35;19.50;101288.63;5058646;28;45430;-77
2023/07/10 10:47:30;;;;;;;;;7.50;7.50;;;;;40.34;19.45;101286.97;5059315;28;45241;-76
2023/07/10 10:50:08;;;;;;;;;3.75;3.75;;;;;40.18;19.50;101281.09;5058715;28;45260;-77
2023/07/10 10:52:51;;;;;;;;;4.00;4.00;;;;;40.29;19.05;101273.91;5039413;28;48196;-71
2023/07/10 10:55:23;;;;;;;;;1.50;1.50;;;;;40.62;18.85;101277.84;5057900;28;45248;-70
2023/07/10 10:58:02;;;;;;;;;4.00;4.00;;;;;40.61;19.18;101284.44;5039534;28;45363;-75
2023/07/10 11:00:46;;;;;;;;;3.00;3.00;;;;;40.49;18.88;101284.50;5059090;28;45479;-73
2023/07/10 11:03:15;;;;;;;;;7.50;7.50;;;;;40.56;19.10;101270.56;5065789;28;46257;-74
2023/07/10 11:05:46;;;;;;;;;6.25;6.25;;;;;40.55;19.02;101266.97;5029299;28;45319;-75
2023/07/10 11:08:26;;;;;;;;;5.00;5.00;;;;;40.66;18.98;101262.47;5059738;28;45315;-73
2023/07/10 11:10:53;;;;;;;;;6.75;6.75;;;;;40.86;18.75;101278.59;5059683;28;45344;-75
2023/07/10 11:13:36;;;;;;;;;5.50;5.50;;;;;40.92;17.97;101271.25;5059463;28;46272;-73
2023/07/10 11:16:06;;;;;;;;;2.00;2.00;;;;;41.02;17.92;101273.34;5040473;28;46221;-72
2023/07/10 11:18:34;;;;;;;;;1.50;1.50;;;;;41.27;17.79;101272.09;5058784;28;45292;-72
2023/07/10 11:21:01;;;;;;;;;5.00;5.00;;;;;41.44;18.07;101263.81;5059139;28;45549;-73
2023/07/10 11:23:43;;;;;;;;;6.00;6.00;;;;;41.68;17.59;101266.38;5057820;28;45993;-73
2023/07/10 11:26:14;;;;;;;;;2.50;2.50;;;;;41.61;17.61;101255.53;5058161;28;45481;-76
2023/07/10 11:28:56;;;;;;;;;2.25;2.25;;;;;41.63;17.65;101267.16;5039875;28;45261;-75
2023/07/10 11:31:31;;;;;;;;;3.00;3.00;;;;;41.72;17.69;101262.88;5058938;28;45457;-74